sensor_id;sensor_type;location;lat;lon;timestamp;P1;durP1;ratioP1;P2;durP2;ratioP2
19560;SDS011;9927;47.792;10.616;2023-03-23T04:01:53;6.07;;;5.50;;
19560;SDS011;9927;47.792;10.616;2023-03-23T04:04:20;12.63;;;6.20;;
19560;SDS011;9927;47.792;10.616;2023-03-23T04:06:47;6.40;;;5.80;;
19560;SDS011;9927;47.792;10.616;2023-03-23T04:09:14;14.37;;;6.30;;
19560;SDS011;9927;47.792;10.616;2023-03-23T04:11:40;6.17;;;5.67;;
19560;SDS011;9927;47.792;10.616;2023-03-23T04:14:06;8.57;;;5.60;;
19560;SDS011;9927;47.792;10.616;2023-03-23T04:16:32;8.10;;;5.23;;
19560;SDS011;9927;47.792;10.616;2023-03-23T04:19:00;12.90;;;6.27;;
19560;SDS011;9927;47.792;10.616;2023-03-23T04:21:27;12.67;;;6.03;;
19560;SDS011;9927;47.792;10.616;2023-03-23T04:23:56;12.10;;;5.90;;
19560;SDS011;9927;47.792;10.616;2023-03-23T04:26:26;13.20;;;6.17;;
19560;SDS011;9927;47.792;10.616;2023-03-23T04:28:54;12.57;;;6.30;;
19560;SDS011;9927;47.792;10.616;2023-03-23T04:31:22;12.17;;;5.90;;
19560;SDS011;9927;47.792;10.616;2023-03-23T04:33:51;12.93;;;6.23;;
19560;SDS011;9927;47.792;10.616;2023-03-23T04:36:20;12.60;;;5.87;;
19560;SDS011;9927;47.792;10.616;2023-03-23T04:38:48;11.60;;;6.10;;
19560;SDS011;9927;47.792;10.616;2023-03-23T04:41:16;20.47;;;8.07;;
19560;SDS011;9927;47.792;10.616;2023-03-23T04:43:42;15.77;;;7.13;;
19560;SDS011;9927;47.792;10.616;2023-03-23T04:46:08;12.77;;;6.53;;
19560;SDS011;9927;47.792;10.616;2023-03-23T04:48:35;12.80;;;5.93;;
19560;SDS011;9927;47.792;10.616;2023-03-23T04:51:02;15.07;;;6.30;;
19560;SDS011;9927;47.792;10.616;2023-03-23T04:53:29;16.30;;;6.70;;
19560;SDS011;9927;47.792;10.616;2023-03-23T04:55:56;13.27;;;5.80;;
19560;SDS011;9927;47.792;10.616;2023-03-23T04:58:22;15.37;;;6.60;;
19560;SDS011;9927;47.792;10.616;2023-03-23T05:00:50;12.03;;;6.80;;
19560;SDS011;9927;47.792;10.616;2023-03-23T05:03:17;14.10;;;6.70;;
19560;SDS011;9927;47.792;10.616;2023-03-23T05:05:44;32.10;;;9.40;;
19560;SDS011;9927;47.792;10.616;2023-03-23T05:08:18;12.90;;;6.40;;
19560;SDS011;9927;47.792;10.616;2023-03-23T05:10:51;14.20;;;6.20;;
19560;SDS011;9927;47.792;10.616;2023-03-23T05:13:19;15.83;;;6.47;;
19560;SDS011;9927;47.792;10.616;2023-03-23T05:15:45;17.20;;;7.23;;
19560;SDS011;9927;47.792;10.616;2023-03-23T05:18:12;13.37;;;6.67;;
19560;SDS011;9927;47.792;10.616;2023-03-23T05:20:38;14.27;;;6.50;;
19560;SDS011;9927;47.792;10.616;2023-03-23T05:23:04;7.33;;;5.87;;
19560;SDS011;9927;47.792;10.616;2023-03-23T05:25:31;13.00;;;6.33;;
19560;SDS011;9927;47.792;10.616;2023-03-23T05:28:02;15.17;;;6.63;;
19560;SDS011;9927;47.792;10.616;2023-03-23T05:30:28;17.88;;;7.60;;
19560;SDS011;9927;47.792;10.616;2023-03-23T05:32:55;12.10;;;6.40;;
19560;SDS011;9927;47.792;10.616;2023-03-23T05:35:21;11.73;;;6.07;;
19560;SDS011;9927;47.792;10.616;2023-03-23T05:37:48;8.93;;;6.30;;
19560;SDS011;9927;47.792;10.616;2023-03-23T05:40:14;14.67;;;6.87;;
19560;SDS011;9927;47.792;10.616;2023-03-23T05:42:40;14.87;;;6.50;;
19560;SDS011;9927;47.792;10.616;2023-03-23T05:45:07;16.27;;;7.00;;
19560;SDS011;9927;47.792;10.616;2023-03-23T05:47:36;16.03;;;6.87;;
19560;SDS011;9927;47.792;10.616;2023-03-23T05:50:04;12.10;;;6.30;;
19560;SDS011;9927;47.792;10.616;2023-03-23T05:52:32;15.90;;;6.83;;
19560;SDS011;9927;47.792;10.616;2023-03-23T05:55:01;16.23;;;7.00;;
19560;SDS011;9927;47.792;10.616;2023-03-23T05:57:28;15.70;;;7.00;;
19560;SDS011;9927;47.792;10.616;2023-03-23T05:59:55;14.77;;;6.77;;
19560;SDS011;9927;47.792;10.616;2023-03-23T06:02:23;13.53;;;6.23;;
19560;SDS011;9927;47.792;10.616;2023-03-23T06:04:50;12.70;;;6.53;;
19560;SDS011;9927;47.792;10.616;2023-03-23T06:07:25;15.57;;;7.57;;
19560;SDS011;9927;47.792;10.616;2023-03-23T06:09:52;20.93;;;7.87;;
19560;SDS011;9927;47.792;10.616;2023-03-23T06:12:18;14.40;;;6.30;;
19560;SDS011;9927;47.792;10.616;2023-03-23T06:14:47;16.50;;;7.47;;
19560;SDS011;9927;47.792;10.616;2023-03-23T06:17:14;14.13;;;7.00;;
19560;SDS011;9927;47.792;10.616;2023-03-23T06:19:42;18.88;;;8.48;;
19560;SDS011;9927;47.792;10.616;2023-03-23T06:22:11;14.53;;;7.10;;
19560;SDS011;9927;47.792;10.616;2023-03-23T06:24:37;16.27;;;6.40;;
19560;SDS011;9927;47.792;10.616;2023-03-23T06:27:04;14.55;;;7.78;;
19560;SDS011;9927;47.792;10.616;2023-03-23T06:29:30;17.55;;;7.28;;
19560;SDS011;9927;47.792;10.616;2023-03-23T06:31:58;15.93;;;7.28;;
19560;SDS011;9927;47.792;10.616;2023-03-23T06:34:26;12.43;;;7.03;;
19560;SDS011;9927;47.792;10.616;2023-03-23T06:36:52;13.35;;;7.13;;
19560;SDS011;9927;47.792;10.616;2023-03-23T06:39:19;16.27;;;7.83;;
19560;SDS011;9927;47.792;10.616;2023-03-23T06:41:45;15.77;;;8.60;;
19560;SDS011;9927;47.792;10.616;2023-03-23T06:44:11;13.05;;;7.82;;
19560;SDS011;9927;47.792;10.616;2023-03-23T06:46:39;14.98;;;7.20;;
19560;SDS011;9927;47.792;10.616;2023-03-23T06:49:06;16.33;;;7.25;;
19560;SDS011;9927;47.792;10.616;2023-03-23T06:51:33;15.80;;;7.90;;
19560;SDS011;9927;47.792;10.616;2023-03-23T06:53:59;15.85;;;8.07;;
19560;SDS011;9927;47.792;10.616;2023-03-23T06:56:26;15.27;;;7.93;;
19560;SDS011;9927;47.792;10.616;2023-03-23T06:58:52;17.60;;;8.10;;
19560;SDS011;9927;47.792;10.616;2023-03-23T07:01:18;13.00;;;7.60;;
19560;SDS011;9927;47.792;10.616;2023-03-23T07:03:45;9.88;;;8.00;;
19560;SDS011;9927;47.792;10.616;2023-03-23T07:06:11;25.75;;;11.63;;
19560;SDS011;9927;47.792;10.616;2023-03-23T07:08:38;23.58;;;9.80;;
19560;SDS011;9927;47.792;10.616;2023-03-23T07:11:04;17.80;;;8.75;;
19560;SDS011;9927;47.792;10.616;2023-03-23T07:13:31;19.88;;;8.95;;
19560;SDS011;9927;47.792;10.616;2023-03-23T07:15:57;15.15;;;7.40;;
19560;SDS011;9927;47.792;10.616;2023-03-23T07:18:23;15.77;;;8.02;;
19560;SDS011;9927;47.792;10.616;2023-03-23T07:20:50;16.08;;;8.23;;
19560;SDS011;9927;47.792;10.616;2023-03-23T07:23:17;19.05;;;8.68;;
19560;SDS011;9927;47.792;10.616;2023-03-23T07:25:44;17.77;;;8.00;;
19560;SDS011;9927;47.792;10.616;2023-03-23T07:28:11;16.05;;;7.75;;
19560;SDS011;9927;47.792;10.616;2023-03-23T07:30:38;9.93;;;6.03;;
19560;SDS011;9927;47.792;10.616;2023-03-23T07:33:05;14.13;;;6.47;;
19560;SDS011;9927;47.792;10.616;2023-03-23T07:35:32;11.90;;;5.93;;
19560;SDS011;9927;47.792;10.616;2023-03-23T07:37:58;9.85;;;5.45;;
19560;SDS011;9927;47.792;10.616;2023-03-23T07:40:25;9.80;;;5.53;;
19560;SDS011;9927;47.792;10.616;2023-03-23T07:42:53;15.05;;;6.20;;
19560;SDS011;9927;47.792;10.616;2023-03-23T07:45:21;20.08;;;6.57;;
19560;SDS011;9927;47.792;10.616;2023-03-23T07:47:47;10.75;;;5.53;;
19560;SDS011;9927;47.792;10.616;2023-03-23T07:50:13;12.00;;;5.30;;
19560;SDS011;9927;47.792;10.616;2023-03-23T07:52:40;11.25;;;5.43;;
19560;SDS011;9927;47.792;10.616;2023-03-23T07:55:10;10.70;;;5.78;;
19560;SDS011;9927;47.792;10.616;2023-03-23T07:57:43;10.65;;;5.65;;
19560;SDS011;9927;47.792;10.616;2023-03-23T08:00:10;10.77;;;5.60;;
19560;SDS011;9927;47.792;10.616;2023-03-23T08:02:48;9.05;;;6.35;;
19560;SDS011;9927;47.792;10.616;2023-03-23T08:05:16;14.20;;;6.22;;
19560;SDS011;9927;47.792;10.616;2023-03-23T08:07:45;12.88;;;6.47;;
19560;SDS011;9927;47.792;10.616;2023-03-23T08:10:13;9.48;;;5.43;;
19560;SDS011;9927;47.792;10.616;2023-03-23T08:12:40;14.32;;;6.35;;
19560;SDS011;9927;47.792;10.616;2023-03-23T08:15:08;10.32;;;5.22;;
19560;SDS011;9927;47.792;10.616;2023-03-23T08:17:38;14.52;;;5.97;;
19560;SDS011;9927;47.792;10.616;2023-03-23T08:20:06;5.40;;;4.70;;
19560;SDS011;9927;47.792;10.616;2023-03-23T08:22:37;12.65;;;5.97;;
19560;SDS011;9927;47.792;10.616;2023-03-23T08:25:04;4.88;;;4.55;;
19560;SDS011;9927;47.792;10.616;2023-03-23T08:27:32;11.35;;;5.70;;
19560;SDS011;9927;47.792;10.616;2023-03-23T08:29:58;11.38;;;5.07;;
19560;SDS011;9927;47.792;10.616;2023-03-23T08:32:25;9.32;;;5.50;;
19560;SDS011;9927;47.792;10.616;2023-03-23T08:34:51;10.30;;;5.57;;
19560;SDS011;9927;47.792;10.616;2023-03-23T08:37:18;10.20;;;6.03;;
19560;SDS011;9927;47.792;10.616;2023-03-23T08:39:44;17.02;;;6.55;;
19560;SDS011;9927;47.792;10.616;2023-03-23T08:42:10;9.68;;;5.57;;
19560;SDS011;9927;47.792;10.616;2023-03-23T08:44:37;11.77;;;5.85;;
19560;SDS011;9927;47.792;10.616;2023-03-23T08:47:03;6.72;;;5.65;;
19560;SDS011;9927;47.792;10.616;2023-03-23T08:49:30;10.45;;;5.78;;
19560;SDS011;9927;47.792;10.616;2023-03-23T08:51:59;9.85;;;6.10;;
19560;SDS011;9927;47.792;10.616;2023-03-23T08:54:28;10.75;;;6.43;;
19560;SDS011;9927;47.792;10.616;2023-03-23T08:56:58;11.20;;;6.32;;
19560;SDS011;9927;47.792;10.616;2023-03-23T08:59:25;7.95;;;5.32;;
19560;SDS011;9927;47.792;10.616;2023-03-23T09:01:52;9.23;;;5.97;;
19560;SDS011;9927;47.792;10.616;2023-03-23T09:04:19;8.00;;;5.40;;
19560;SDS011;9927;47.792;10.616;2023-03-23T09:06:46;10.50;;;6.22;;
19560;SDS011;9927;47.792;10.616;2023-03-23T09:09:12;10.73;;;5.85;;
19560;SDS011;9927;47.792;10.616;2023-03-23T09:11:39;9.52;;;6.25;;
19560;SDS011;9927;47.792;10.616;2023-03-23T09:14:06;13.30;;;7.28;;
19560;SDS011;9927;47.792;10.616;2023-03-23T09:16:33;13.38;;;7.43;;
19560;SDS011;9927;47.792;10.616;2023-03-23T09:19:00;16.63;;;9.05;;
19560;SDS011;9927;47.792;10.616;2023-03-23T09:21:27;13.73;;;8.73;;
19560;SDS011;9927;47.792;10.616;2023-03-23T09:23:54;17.08;;;9.38;;
19560;SDS011;9927;47.792;10.616;2023-03-23T09:26:26;12.00;;;8.23;;
19560;SDS011;9927;47.792;10.616;2023-03-23T09:28:52;15.10;;;7.60;;
19560;SDS011;9927;47.792;10.616;2023-03-23T09:31:19;9.68;;;6.93;;
19560;SDS011;9927;47.792;10.616;2023-03-23T09:33:46;13.50;;;7.93;;
19560;SDS011;9927;47.792;10.616;2023-03-23T09:36:12;14.48;;;8.00;;
19560;SDS011;9927;47.792;10.616;2023-03-23T09:38:40;10.13;;;6.35;;
19560;SDS011;9927;47.792;10.616;2023-03-23T09:49:11;7.78;;;5.95;;
19560;SDS011;9927;47.792;10.616;2023-03-23T09:51:45;9.43;;;6.32;;
19560;SDS011;9927;47.792;10.616;2023-03-23T09:54:24;8.45;;;6.57;;
19560;SDS011;9927;47.792;10.616;2023-03-23T09:56:54;8.40;;;6.30;;
19560;SDS011;9927;47.792;10.616;2023-03-23T09:59:29;9.50;;;6.97;;
19560;SDS011;9927;47.792;10.616;2023-03-23T10:04:43;9.82;;;6.85;;
19560;SDS011;9927;47.792;10.616;2023-03-23T10:07:16;16.45;;;8.00;;
19560;SDS011;9927;47.792;10.616;2023-03-23T10:09:48;11.75;;;7.80;;
19560;SDS011;9927;47.792;10.616;2023-03-23T10:12:27;11.32;;;7.03;;
19560;SDS011;9927;47.792;10.616;2023-03-23T10:20:29;11.80;;;8.20;;
19560;SDS011;9927;47.792;10.616;2023-03-23T10:31:52;13.38;;;7.65;;
19560;SDS011;9927;47.792;10.616;2023-03-23T10:39:55;11.57;;;7.72;;
19560;SDS011;9927;47.792;10.616;2023-03-23T10:45:12;16.17;;;7.78;;
19560;SDS011;9927;47.792;10.616;2023-03-23T10:47:58;10.63;;;7.65;;
19560;SDS011;9927;47.792;10.616;2023-03-23T10:50:36;12.38;;;7.78;;
19560;SDS011;9927;47.792;10.616;2023-03-23T10:53:11;11.82;;;7.68;;
19560;SDS011;9927;47.792;10.616;2023-03-23T10:55:49;11.45;;;7.07;;
19560;SDS011;9927;47.792;10.616;2023-03-23T10:58:49;11.70;;;7.95;;
19560;SDS011;9927;47.792;10.616;2023-03-23T11:01:09;10.82;;;8.18;;
19560;SDS011;9927;47.792;10.616;2023-03-23T11:06:07;9.77;;;6.85;;
19560;SDS011;9927;47.792;10.616;2023-03-23T11:08:38;11.35;;;7.65;;
19560;SDS011;9927;47.792;10.616;2023-03-23T11:11:16;10.25;;;7.55;;
19560;SDS011;9927;47.792;10.616;2023-03-23T11:13:58;9.90;;;7.20;;
19560;SDS011;9927;47.792;10.616;2023-03-23T11:16:42;12.20;;;7.97;;
19560;SDS011;9927;47.792;10.616;2023-03-23T11:19:21;9.07;;;7.28;;
19560;SDS011;9927;47.792;10.616;2023-03-23T11:21:57;13.80;;;7.75;;
19560;SDS011;9927;47.792;10.616;2023-03-23T11:24:42;11.02;;;6.88;;
19560;SDS011;9927;47.792;10.616;2023-03-23T11:27:10;11.18;;;7.32;;
19560;SDS011;9927;47.792;10.616;2023-03-23T11:29:40;9.90;;;6.88;;
19560;SDS011;9927;47.792;10.616;2023-03-23T11:32:25;6.82;;;6.05;;
19560;SDS011;9927;47.792;10.616;2023-03-23T11:34:54;13.52;;;7.10;;
19560;SDS011;9927;47.792;10.616;2023-03-23T11:42:43;11.32;;;6.90;;
19560;SDS011;9927;47.792;10.616;2023-03-23T11:48:25;7.43;;;5.63;;
19560;SDS011;9927;47.792;10.616;2023-03-23T11:51:08;12.25;;;6.78;;
19560;SDS011;9927;47.792;10.616;2023-03-23T11:56:29;8.63;;;6.43;;
19560;SDS011;9927;47.792;10.616;2023-03-23T11:58:59;10.40;;;5.45;;
19560;SDS011;9927;47.792;10.616;2023-03-23T12:09:33;9.57;;;5.32;;
19560;SDS011;9927;47.792;10.616;2023-03-23T12:14:56;10.07;;;5.18;;
19560;SDS011;9927;47.792;10.616;2023-03-23T12:18:02;8.27;;;4.50;;
19560;SDS011;9927;47.792;10.616;2023-03-23T12:23:22;12.65;;;4.50;;
19560;SDS011;9927;47.792;10.616;2023-03-23T12:31:18;5.25;;;3.45;;
19560;SDS011;9927;47.792;10.616;2023-03-23T12:34:05;6.72;;;3.40;;
19560;SDS011;9927;47.792;10.616;2023-03-23T12:42:16;6.35;;;3.35;;
19560;SDS011;9927;47.792;10.616;2023-03-23T12:47:59;5.15;;;3.53;;
19560;SDS011;9927;47.792;10.616;2023-03-23T12:50:35;8.20;;;3.50;;
19560;SDS011;9927;47.792;10.616;2023-03-23T12:53:14;8.77;;;3.85;;
19560;SDS011;9927;47.792;10.616;2023-03-23T12:59:19;7.38;;;3.90;;
19560;SDS011;9927;47.792;10.616;2023-03-23T13:01:57;5.75;;;3.47;;
19560;SDS011;9927;47.792;10.616;2023-03-23T13:04:35;6.20;;;3.50;;
19560;SDS011;9927;47.792;10.616;2023-03-23T13:07:05;7.57;;;4.20;;
19560;SDS011;9927;47.792;10.616;2023-03-23T13:12:23;5.53;;;3.53;;
19560;SDS011;9927;47.792;10.616;2023-03-23T13:15:00;8.10;;;3.95;;
19560;SDS011;9927;47.792;10.616;2023-03-23T13:25:40;6.50;;;4.15;;
19560;SDS011;9927;47.792;10.616;2023-03-23T13:28:26;6.90;;;4.03;;
19560;SDS011;9927;47.792;10.616;2023-03-23T13:31:11;8.07;;;4.35;;
19560;SDS011;9927;47.792;10.616;2023-03-23T13:33:43;7.20;;;4.00;;
19560;SDS011;9927;47.792;10.616;2023-03-23T13:36:26;6.30;;;3.97;;
19560;SDS011;9927;47.792;10.616;2023-03-23T13:38:58;5.70;;;3.78;;
19560;SDS011;9927;47.792;10.616;2023-03-23T13:41:26;13.68;;;4.30;;
19560;SDS011;9927;47.792;10.616;2023-03-23T13:44:04;6.28;;;3.90;;
19560;SDS011;9927;47.792;10.616;2023-03-23T13:46:53;6.70;;;4.07;;
19560;SDS011;9927;47.792;10.616;2023-03-23T13:49:21;5.82;;;4.07;;
19560;SDS011;9927;47.792;10.616;2023-03-23T13:56:52;3.80;;;3.45;;
19560;SDS011;9927;47.792;10.616;2023-03-23T13:59:31;4.22;;;3.85;;
19560;SDS011;9927;47.792;10.616;2023-03-23T14:02:26;8.27;;;3.65;;
19560;SDS011;9927;47.792;10.616;2023-03-23T14:04:52;8.10;;;4.07;;
19560;SDS011;9927;47.792;10.616;2023-03-23T14:07:20;5.68;;;3.90;;
19560;SDS011;9927;47.792;10.616;2023-03-23T14:09:46;9.30;;;5.15;;
19560;SDS011;9927;47.792;10.616;2023-03-23T14:12:21;9.70;;;3.80;;
19560;SDS011;9927;47.792;10.616;2023-03-23T14:14:56;7.65;;;4.20;;
19560;SDS011;9927;47.792;10.616;2023-03-23T14:17:29;6.53;;;4.22;;
19560;SDS011;9927;47.792;10.616;2023-03-23T14:19:58;6.82;;;4.32;;
19560;SDS011;9927;47.792;10.616;2023-03-23T14:22:33;6.97;;;4.20;;
19560;SDS011;9927;47.792;10.616;2023-03-23T14:25:02;6.60;;;3.85;;
19560;SDS011;9927;47.792;10.616;2023-03-23T14:27:36;6.25;;;4.18;;
19560;SDS011;9927;47.792;10.616;2023-03-23T14:30:04;8.43;;;3.90;;
19560;SDS011;9927;47.792;10.616;2023-03-23T14:32:32;6.80;;;4.25;;
19560;SDS011;9927;47.792;10.616;2023-03-23T14:35:00;6.22;;;3.90;;
19560;SDS011;9927;47.792;10.616;2023-03-23T14:37:32;8.88;;;4.10;;
19560;SDS011;9927;47.792;10.616;2023-03-23T14:40:00;6.75;;;3.95;;
19560;SDS011;9927;47.792;10.616;2023-03-23T14:42:32;7.80;;;4.18;;
19560;SDS011;9927;47.792;10.616;2023-03-23T14:45:00;12.13;;;4.78;;
19560;SDS011;9927;47.792;10.616;2023-03-23T14:47:31;11.93;;;5.13;;
19560;SDS011;9927;47.792;10.616;2023-03-23T14:50:05;10.95;;;4.70;;
19560;SDS011;9927;47.792;10.616;2023-03-23T14:52:33;10.95;;;4.80;;
19560;SDS011;9927;47.792;10.616;2023-03-23T14:55:16;8.02;;;4.18;;
19560;SDS011;9927;47.792;10.616;2023-03-23T14:57:46;6.28;;;4.03;;
19560;SDS011;9927;47.792;10.616;2023-03-23T15:00:27;10.18;;;4.60;;
19560;SDS011;9927;47.792;10.616;2023-03-23T15:02:59;9.35;;;4.55;;
19560;SDS011;9927;47.792;10.616;2023-03-23T15:05:31;8.63;;;4.10;;
19560;SDS011;9927;47.792;10.616;2023-03-23T15:08:03;6.30;;;3.72;;
19560;SDS011;9927;47.792;10.616;2023-03-23T15:10:37;8.68;;;4.00;;
19560;SDS011;9927;47.792;10.616;2023-03-23T15:13:04;6.85;;;3.92;;
19560;SDS011;9927;47.792;10.616;2023-03-23T15:15:31;7.60;;;3.85;;
19560;SDS011;9927;47.792;10.616;2023-03-23T15:18:01;7.22;;;4.10;;
19560;SDS011;9927;47.792;10.616;2023-03-23T15:20:30;8.00;;;4.07;;
19560;SDS011;9927;47.792;10.616;2023-03-23T15:23:17;7.28;;;3.85;;
19560;SDS011;9927;47.792;10.616;2023-03-23T15:25:50;6.18;;;3.67;;
19560;SDS011;9927;47.792;10.616;2023-03-23T15:28:18;7.78;;;3.85;;
19560;SDS011;9927;47.792;10.616;2023-03-23T15:30:48;4.75;;;3.30;;
19560;SDS011;9927;47.792;10.616;2023-03-23T15:33:16;8.05;;;4.05;;
19560;SDS011;9927;47.792;10.616;2023-03-23T15:35:45;8.57;;;4.25;;
19560;SDS011;9927;47.792;10.616;2023-03-23T15:38:18;8.50;;;4.40;;
19560;SDS011;9927;47.792;10.616;2023-03-23T15:40:51;6.40;;;3.70;;
19560;SDS011;9927;47.792;10.616;2023-03-23T15:43:24;9.02;;;4.70;;
19560;SDS011;9927;47.792;10.616;2023-03-23T15:46:16;5.80;;;3.70;;
19560;SDS011;9927;47.792;10.616;2023-03-23T15:48:47;6.78;;;3.70;;
19560;SDS011;9927;47.792;10.616;2023-03-23T15:51:15;9.05;;;4.18;;
19560;SDS011;9927;47.792;10.616;2023-03-23T15:53:43;8.52;;;4.03;;
19560;SDS011;9927;47.792;10.616;2023-03-23T15:56:10;7.55;;;4.82;;
19560;SDS011;9927;47.792;10.616;2023-03-23T15:58:37;8.70;;;4.40;;
19560;SDS011;9927;47.792;10.616;2023-03-23T16:01:11;8.70;;;4.53;;
19560;SDS011;9927;47.792;10.616;2023-03-23T16:06:25;9.07;;;4.65;;
19560;SDS011;9927;47.792;10.616;2023-03-23T16:08:53;8.80;;;4.55;;
19560;SDS011;9927;47.792;10.616;2023-03-23T16:11:22;10.85;;;5.38;;
19560;SDS011;9927;47.792;10.616;2023-03-23T16:13:51;7.97;;;4.38;;
19560;SDS011;9927;47.792;10.616;2023-03-23T16:16:26;4.00;;;3.80;;
19560;SDS011;9927;47.792;10.616;2023-03-23T16:18:56;4.88;;;4.47;;
19560;SDS011;9927;47.792;10.616;2023-03-23T16:21:24;4.47;;;4.07;;
19560;SDS011;9927;47.792;10.616;2023-03-23T16:23:51;4.60;;;4.25;;
19560;SDS011;9927;47.792;10.616;2023-03-23T16:26:19;4.43;;;4.13;;
19560;SDS011;9927;47.792;10.616;2023-03-23T16:28:46;4.35;;;4.05;;
19560;SDS011;9927;47.792;10.616;2023-03-23T16:31:13;4.57;;;4.15;;
19560;SDS011;9927;47.792;10.616;2023-03-23T16:33:41;4.65;;;4.35;;
19560;SDS011;9927;47.792;10.616;2023-03-23T16:36:10;4.50;;;4.20;;
19560;SDS011;9927;47.792;10.616;2023-03-23T16:38:41;4.70;;;4.30;;
19560;SDS011;9927;47.792;10.616;2023-03-23T16:41:17;4.18;;;3.88;;
19560;SDS011;9927;47.792;10.616;2023-03-23T16:43:44;4.50;;;4.15;;
19560;SDS011;9927;47.792;10.616;2023-03-23T16:46:11;4.72;;;4.43;;
19560;SDS011;9927;47.792;10.616;2023-03-23T16:48:39;5.60;;;4.68;;
19560;SDS011;9927;47.792;10.616;2023-03-23T16:51:07;4.93;;;4.53;;
19560;SDS011;9927;47.792;10.616;2023-03-23T16:53:34;7.57;;;5.60;;
19560;SDS011;9927;47.792;10.616;2023-03-23T16:56:02;8.10;;;5.28;;
19560;SDS011;9927;47.792;10.616;2023-03-23T16:58:30;4.78;;;4.30;;
19560;SDS011;9927;47.792;10.616;2023-03-23T17:00:57;4.35;;;4.05;;
19560;SDS011;9927;47.792;10.616;2023-03-23T17:03:26;4.60;;;4.30;;
19560;SDS011;9927;47.792;10.616;2023-03-23T17:05:53;4.93;;;4.50;;
19560;SDS011;9927;47.792;10.616;2023-03-23T17:08:21;4.03;;;3.83;;
19560;SDS011;9927;47.792;10.616;2023-03-23T17:10:48;4.18;;;3.97;;
19560;SDS011;9927;47.792;10.616;2023-03-23T17:13:16;6.90;;;6.30;;
19560;SDS011;9927;47.792;10.616;2023-03-23T17:15:43;11.18;;;9.88;;
19560;SDS011;9927;47.792;10.616;2023-03-23T17:18:13;20.48;;;16.73;;
19560;SDS011;9927;47.792;10.616;2023-03-23T17:20:41;13.45;;;11.50;;
19560;SDS011;9927;47.792;10.616;2023-03-23T17:23:09;8.25;;;7.55;;
19560;SDS011;9927;47.792;10.616;2023-03-23T17:25:36;7.90;;;7.10;;
19560;SDS011;9927;47.792;10.616;2023-03-23T17:28:04;7.93;;;6.80;;
19560;SDS011;9927;47.792;10.616;2023-03-23T17:30:33;8.07;;;7.03;;
19560;SDS011;9927;47.792;10.616;2023-03-23T17:33:01;6.47;;;5.88;;
19560;SDS011;9927;47.792;10.616;2023-03-23T17:35:28;5.32;;;4.93;;
19560;SDS011;9927;47.792;10.616;2023-03-23T17:37:56;6.00;;;5.57;;
19560;SDS011;9927;47.792;10.616;2023-03-23T17:40:24;6.20;;;5.60;;
19560;SDS011;9927;47.792;10.616;2023-03-23T17:42:51;6.80;;;6.30;;
19560;SDS011;9927;47.792;10.616;2023-03-23T17:45:18;7.13;;;5.97;;
19560;SDS011;9927;47.792;10.616;2023-03-23T17:47:45;7.78;;;7.13;;
19560;SDS011;9927;47.792;10.616;2023-03-23T17:50:13;7.93;;;7.20;;
19560;SDS011;9927;47.792;10.616;2023-03-23T17:52:40;8.98;;;8.05;;
19560;SDS011;9927;47.792;10.616;2023-03-23T17:55:09;10.18;;;9.18;;
19560;SDS011;9927;47.792;10.616;2023-03-23T17:57:37;10.95;;;9.80;;
19560;SDS011;9927;47.792;10.616;2023-03-23T18:00:05;13.63;;;12.10;;
19560;SDS011;9927;47.792;10.616;2023-03-23T18:02:34;13.88;;;12.40;;
19560;SDS011;9927;47.792;10.616;2023-03-23T18:05:03;15.45;;;11.90;;
19560;SDS011;9927;47.792;10.616;2023-03-23T18:07:31;16.15;;;13.00;;
19560;SDS011;9927;47.792;10.616;2023-03-23T18:09:59;13.73;;;11.38;;
19560;SDS011;9927;47.792;10.616;2023-03-23T18:12:26;10.50;;;9.35;;
19560;SDS011;9927;47.792;10.616;2023-03-23T18:14:54;8.27;;;7.47;;
19560;SDS011;9927;47.792;10.616;2023-03-23T18:17:25;7.25;;;6.45;;
19560;SDS011;9927;47.792;10.616;2023-03-23T18:19:52;7.05;;;6.35;;
19560;SDS011;9927;47.792;10.616;2023-03-23T18:22:20;7.28;;;6.57;;
19560;SDS011;9927;47.792;10.616;2023-03-23T18:24:47;8.13;;;7.28;;
19560;SDS011;9927;47.792;10.616;2023-03-23T18:27:15;7.55;;;6.80;;
19560;SDS011;9927;47.792;10.616;2023-03-23T18:29:42;8.13;;;7.05;;
19560;SDS011;9927;47.792;10.616;2023-03-23T18:32:10;10.40;;;7.43;;
19560;SDS011;9927;47.792;10.616;2023-03-23T18:34:40;12.98;;;11.57;;
19560;SDS011;9927;47.792;10.616;2023-03-23T18:37:09;12.55;;;10.65;;
19560;SDS011;9927;47.792;10.616;2023-03-23T18:39:36;11.55;;;9.30;;
19560;SDS011;9927;47.792;10.616;2023-03-23T18:42:04;8.55;;;7.72;;
19560;SDS011;9927;47.792;10.616;2023-03-23T18:44:32;8.45;;;7.65;;
19560;SDS011;9927;47.792;10.616;2023-03-23T18:47:00;8.13;;;7.32;;
19560;SDS011;9927;47.792;10.616;2023-03-23T18:49:27;7.07;;;6.40;;
19560;SDS011;9927;47.792;10.616;2023-03-23T18:51:55;8.30;;;7.07;;
19560;SDS011;9927;47.792;10.616;2023-03-23T18:54:23;14.77;;;10.68;;
19560;SDS011;9927;47.792;10.616;2023-03-23T18:56:50;26.55;;;15.63;;
19560;SDS011;9927;47.792;10.616;2023-03-23T18:59:17;36.28;;;20.77;;
19560;SDS011;9927;47.792;10.616;2023-03-23T19:01:44;16.90;;;12.48;;
19560;SDS011;9927;47.792;10.616;2023-03-23T19:04:12;14.88;;;12.07;;
19560;SDS011;9927;47.792;10.616;2023-03-23T19:06:40;10.95;;;9.65;;
19560;SDS011;9927;47.792;10.616;2023-03-23T19:09:07;9.52;;;8.52;;
19560;SDS011;9927;47.792;10.616;2023-03-23T19:11:34;9.07;;;7.95;;
19560;SDS011;9927;47.792;10.616;2023-03-23T19:14:02;8.68;;;7.88;;
19560;SDS011;9927;47.792;10.616;2023-03-23T19:16:30;8.52;;;7.45;;
19560;SDS011;9927;47.792;10.616;2023-03-23T19:19:00;8.18;;;7.00;;
19560;SDS011;9927;47.792;10.616;2023-03-23T19:21:28;7.13;;;6.53;;
19560;SDS011;9927;47.792;10.616;2023-03-23T19:23:58;7.60;;;6.90;;
19560;SDS011;9927;47.792;10.616;2023-03-23T19:26:28;12.13;;;9.93;;
19560;SDS011;9927;47.792;10.616;2023-03-23T19:29:08;10.75;;;9.02;;
19560;SDS011;9927;47.792;10.616;2023-03-23T19:31:40;10.25;;;8.82;;
19560;SDS011;9927;47.792;10.616;2023-03-23T19:34:11;8.95;;;7.10;;
19560;SDS011;9927;47.792;10.616;2023-03-23T19:36:39;7.68;;;6.80;;
19560;SDS011;9927;47.792;10.616;2023-03-23T19:39:06;7.10;;;6.43;;
19560;SDS011;9927;47.792;10.616;2023-03-23T19:41:34;7.05;;;6.45;;
19560;SDS011;9927;47.792;10.616;2023-03-23T19:44:02;7.65;;;6.75;;
19560;SDS011;9927;47.792;10.616;2023-03-23T19:46:31;7.20;;;6.50;;
19560;SDS011;9927;47.792;10.616;2023-03-23T19:48:59;8.75;;;7.85;;
19560;SDS011;9927;47.792;10.616;2023-03-23T19:51:27;9.75;;;8.95;;
19560;SDS011;9927;47.792;10.616;2023-03-23T19:53:55;11.85;;;8.65;;
19560;SDS011;9927;47.792;10.616;2023-03-23T19:56:24;7.10;;;6.50;;
19560;SDS011;9927;47.792;10.616;2023-03-23T19:58:54;7.30;;;6.60;;
19560;SDS011;9927;47.792;10.616;2023-03-23T20:01:22;6.85;;;6.15;;
19560;SDS011;9927;47.792;10.616;2023-03-23T20:03:49;6.90;;;6.22;;
19560;SDS011;9927;47.792;10.616;2023-03-23T20:06:17;7.22;;;6.63;;
19560;SDS011;9927;47.792;10.616;2023-03-23T20:08:45;7.00;;;6.30;;
19560;SDS011;9927;47.792;10.616;2023-03-23T20:11:16;7.47;;;6.78;;
19560;SDS011;9927;47.792;10.616;2023-03-23T20:13:45;9.52;;;7.15;;
19560;SDS011;9927;47.792;10.616;2023-03-23T20:16:14;7.82;;;6.97;;
19560;SDS011;9927;47.792;10.616;2023-03-23T20:18:43;6.80;;;6.20;;
19560;SDS011;9927;47.792;10.616;2023-03-23T20:21:13;7.38;;;6.72;;
19560;SDS011;9927;47.792;10.616;2023-03-23T20:23:45;7.03;;;6.32;;
19560;SDS011;9927;47.792;10.616;2023-03-23T20:26:15;9.45;;;7.72;;
19560;SDS011;9927;47.792;10.616;2023-03-23T20:28:51;9.27;;;8.48;;
19560;SDS011;9927;47.792;10.616;2023-03-23T20:31:20;8.85;;;8.05;;
19560;SDS011;9927;47.792;10.616;2023-03-23T20:33:53;8.88;;;7.97;;